createdAt,value
2022-11-07T00:01:47.711Z,86
2022-11-07T00:05:12.898Z,87
2022-11-07T00:08:38.143Z,86
2022-11-07T00:12:03.407Z,86
2022-11-07T00:15:28.627Z,85
2022-11-07T00:18:53.846Z,85
2022-11-07T00:22:19.085Z,85
2022-11-07T00:25:44.342Z,84
2022-11-07T00:29:09.644Z,85
2022-11-07T00:32:34.834Z,84
2022-11-07T00:36:00.049Z,84
2022-11-07T00:39:25.285Z,84
2022-11-07T00:42:50.508Z,83
2022-11-07T00:46:15.758Z,83
2022-11-07T00:49:40.971Z,83
2022-11-07T00:53:06.194Z,84
2022-11-07T00:56:31.430Z,85
2022-11-07T00:59:56.666Z,84
2022-11-07T01:03:21.913Z,84
2022-11-07T01:06:47.133Z,85
2022-11-07T01:10:12.351Z,85
2022-11-07T01:13:37.612Z,85
2022-11-07T01:17:02.856Z,85
2022-11-07T01:20:28.126Z,85
2022-11-07T01:23:53.340Z,85
2022-11-07T01:27:18.556Z,85
2022-11-07T01:30:43.785Z,85
2022-11-07T01:34:09.795Z,86
2022-11-07T01:37:35.026Z,87
2022-11-07T01:41:00.213Z,88
2022-11-07T01:44:25.430Z,89
2022-11-07T01:47:50.641Z,90
2022-11-07T01:51:15.856Z,90
2022-11-07T01:54:41.091Z,90
2022-11-07T01:58:06.277Z,91
2022-11-07T02:01:31.580Z,91
2022-11-07T02:04:56.723Z,91
2022-11-07T02:08:21.939Z,91
2022-11-07T02:11:47.175Z,90
2022-11-07T02:15:12.363Z,91
2022-11-07T02:18:37.586Z,90
2022-11-07T02:22:02.788Z,90
2022-11-07T02:25:28.013Z,91
2022-11-07T02:28:53.283Z,92
2022-11-07T02:32:18.456Z,92
2022-11-07T02:35:43.671Z,92
2022-11-07T02:39:08.889Z,93
2022-11-07T02:42:34.122Z,92
2022-11-07T02:45:59.426Z,92
2022-11-07T02:49:24.532Z,92
2022-11-07T02:52:49.759Z,92
2022-11-07T02:56:14.963Z,92
2022-11-07T02:59:40.177Z,92
2022-11-07T03:03:05.410Z,92
2022-11-07T03:06:30.619Z,92
2022-11-07T03:09:55.835Z,92
2022-11-07T03:13:21.056Z,93
2022-11-07T03:16:46.255Z,93
2022-11-07T03:20:11.487Z,93
2022-11-07T03:23:36.691Z,93
2022-11-07T03:27:01.911Z,94
2022-11-07T03:30:27.121Z,94
2022-11-07T03:33:52.340Z,94
2022-11-07T03:37:17.596Z,94
2022-11-07T03:40:42.791Z,93
2022-11-07T03:44:08.004Z,93
2022-11-07T03:47:33.209Z,93
2022-11-07T03:50:58.425Z,93
2022-11-07T03:54:23.673Z,93
2022-11-07T03:57:48.863Z,93
2022-11-07T04:01:14.062Z,93
2022-11-07T04:04:39.301Z,93
2022-11-07T04:08:04.518Z,93
2022-11-07T04:11:29.748Z,93
2022-11-07T04:14:54.980Z,93
2022-11-07T04:18:20.234Z,93
2022-11-07T04:21:45.463Z,94
2022-11-07T04:25:10.676Z,94
2022-11-07T04:28:35.915Z,94
2022-11-07T04:32:01.108Z,94
2022-11-07T04:35:26.319Z,95
2022-11-07T04:38:51.535Z,95
2022-11-07T04:42:16.752Z,95
2022-11-07T04:45:41.961Z,95
2022-11-07T04:49:07.154Z,95
2022-11-07T04:52:32.981Z,95
2022-11-07T04:55:58.210Z,95
2022-11-07T04:59:23.407Z,95
2022-11-07T05:02:48.780Z,96
2022-11-07T05:06:13.851Z,96
2022-11-07T05:09:39.083Z,96
2022-11-07T05:13:04.306Z,96
2022-11-07T05:16:29.564Z,96
2022-11-07T05:19:54.822Z,97
2022-11-07T05:23:20.590Z,97
2022-11-07T05:26:45.346Z,97
2022-11-07T05:30:10.547Z,97
2022-11-07T05:33:35.891Z,97
2022-11-07T05:37:01.177Z,96
2022-11-07T05:40:26.379Z,96
2022-11-07T05:43:51.655Z,96
2022-11-07T05:47:16.880Z,97
2022-11-07T05:50:42.114Z,97
2022-11-07T05:54:07.380Z,97
2022-11-07T05:57:32.585Z,97
2022-11-07T06:00:57.827Z,96
2022-11-07T06:04:23.082Z,96
2022-11-07T06:07:48.378Z,96
2022-11-07T06:11:13.661Z,96
2022-11-07T06:14:38.912Z,96
2022-11-07T06:18:04.206Z,96
2022-11-07T06:21:29.493Z,96
2022-11-07T06:24:54.749Z,96
2022-11-07T06:28:20.064Z,96
2022-11-07T06:31:45.302Z,95
2022-11-07T06:35:10.521Z,95
2022-11-07T06:38:35.778Z,95
2022-11-07T06:42:01.022Z,95
2022-11-07T06:45:26.299Z,95
2022-11-07T06:48:51.512Z,95
2022-11-07T06:52:16.776Z,95
2022-11-07T06:55:42.035Z,95
2022-11-07T06:59:07.292Z,95
2022-11-07T07:02:56.619Z,95
2022-11-07T07:05:57.815Z,95
2022-11-07T07:09:23.022Z,95
2022-11-07T07:12:48.308Z,95
2022-11-07T07:16:13.554Z,94
2022-11-07T07:19:38.907Z,94
2022-11-07T07:23:15.680Z,94
2022-11-07T07:26:29.324Z,94
2022-11-07T07:29:54.584Z,95
2022-11-07T07:33:19.846Z,95
2022-11-07T07:36:45.240Z,94
2022-11-07T07:40:10.398Z,94
2022-11-07T07:43:35.673Z,94
2022-11-07T07:47:00.929Z,94
2022-11-07T07:50:26.213Z,94
2022-11-07T07:53:51.576Z,94
2022-11-07T07:57:16.685Z,94
2022-11-07T08:00:42.066Z,93
2022-11-07T08:04:07.228Z,93
2022-11-07T08:07:32.464Z,93
2022-11-07T08:10:57.870Z,93
2022-11-07T08:14:23.005Z,93
2022-11-07T08:17:48.284Z,94
2022-11-07T08:21:13.549Z,93
2022-11-07T08:24:38.801Z,93
2022-11-07T08:28:04.126Z,93
2022-11-07T08:31:29.311Z,92
2022-11-07T08:34:54.563Z,92
2022-11-07T08:38:19.766Z,92
2022-11-07T08:41:44.993Z,92
2022-11-07T08:45:10.273Z,92
2022-11-07T08:48:35.501Z,91
2022-11-07T08:52:00.782Z,92
2022-11-07T08:55:26.021Z,91
2022-11-07T08:58:51.260Z,91
2022-11-07T09:05:41.811Z,90
2022-11-07T09:09:07.086Z,90
2022-11-07T09:12:32.304Z,90
2022-11-07T09:15:57.540Z,90
2022-11-07T09:19:22.857Z,90
2022-11-07T09:22:48.057Z,90
2022-11-07T09:26:13.356Z,90
2022-11-07T09:29:38.581Z,89
2022-11-07T09:33:03.844Z,89
2022-11-07T09:36:29.188Z,88
2022-11-07T09:39:54.418Z,88
2022-11-07T09:43:19.721Z,88
2022-11-07T09:46:44.929Z,88
2022-11-07T09:50:10.185Z,88
2022-11-07T09:53:35.525Z,89
2022-11-07T09:57:00.734Z,89
2022-11-07T10:00:25.984Z,88
2022-11-07T10:04:22.732Z,88
2022-11-07T10:07:16.515Z,88
2022-11-07T10:10:41.800Z,88
2022-11-07T10:14:07.128Z,88
2022-11-07T10:17:32.357Z,88
2022-11-07T10:21:10.445Z,88
2022-11-07T10:24:22.888Z,87
2022-11-07T10:27:48.147Z,86
2022-11-07T10:31:13.455Z,86
2022-11-07T10:34:38.740Z,86
2022-11-07T10:38:04.006Z,86
2022-11-07T10:41:29.289Z,84
2022-11-07T10:44:54.604Z,84
2022-11-07T10:48:20.023Z,85
2022-11-07T10:51:45.147Z,84
2022-11-07T10:55:10.413Z,85
2022-11-07T10:58:35.678Z,84
2022-11-07T11:02:01.031Z,83
2022-11-07T11:05:26.168Z,83
2022-11-07T11:08:51.638Z,83
2022-11-07T11:12:17.018Z,82
2022-11-07T11:15:42.265Z,82
2022-11-07T11:19:07.589Z,82
2022-11-07T11:22:33.216Z,83
2022-11-07T11:25:58.429Z,82
2022-11-07T11:29:23.661Z,82
2022-11-07T11:32:48.954Z,82
2022-11-07T11:36:14.217Z,82
2022-11-07T11:39:39.453Z,81
2022-11-07T11:43:04.733Z,82
2022-11-07T11:46:29.958Z,81
2022-11-07T11:49:55.240Z,80
2022-11-07T11:53:20.533Z,80
2022-11-07T11:56:45.777Z,80
2022-11-07T12:00:11.044Z,79
2022-11-07T12:03:36.326Z,78
2022-11-07T12:07:01.528Z,78
2022-11-07T12:10:26.837Z,78
2022-11-07T12:13:52.084Z,77
2022-11-07T12:17:17.382Z,77
2022-11-07T12:20:42.647Z,78
2022-11-07T12:24:07.933Z,77
2022-11-07T12:27:33.225Z,77
2022-11-07T12:30:58.484Z,77
2022-11-07T12:34:23.729Z,77
2022-11-07T12:37:49.011Z,78
2022-11-07T12:41:14.348Z,79
2022-11-07T12:44:39.601Z,78
2022-11-07T12:48:08.795Z,78
2022-11-07T12:51:30.110Z,79
2022-11-07T12:54:55.350Z,80
2022-11-07T12:58:20.632Z,80
2022-11-07T13:01:46.083Z,80
2022-11-07T13:05:11.137Z,81
2022-11-07T13:08:36.372Z,80
2022-11-07T13:12:01.641Z,81
2022-11-07T13:15:26.898Z,82
2022-11-07T13:18:52.199Z,82
2022-11-07T13:22:17.470Z,81
2022-11-07T13:25:42.807Z,81
2022-11-07T13:29:07.985Z,81
2022-11-07T13:32:33.263Z,81
2022-11-07T13:35:58.561Z,81
2022-11-07T13:39:23.787Z,81
2022-11-07T13:42:49.013Z,81
2022-11-07T13:46:14.242Z,81
2022-11-07T13:49:44.196Z,81
2022-11-07T13:53:04.802Z,81
2022-11-07T13:56:30.153Z,81
2022-11-07T13:59:55.424Z,82
2022-11-07T14:03:20.699Z,81
2022-11-07T14:06:46.005Z,81
2022-11-07T14:10:11.398Z,82
2022-11-07T14:13:40.852Z,82
2022-11-07T14:17:01.994Z,82
2022-11-07T14:20:27.323Z,83
2022-11-07T14:23:52.578Z,83
2022-11-07T14:27:17.885Z,82
2022-11-07T15:04:15.098Z,85
2022-11-07T15:07:40.425Z,86
2022-11-07T15:11:05.767Z,86
2022-11-07T15:14:31.099Z,85
2022-11-07T15:17:56.390Z,86
2022-11-07T15:21:21.714Z,86
2022-11-07T15:24:47.039Z,86
2022-11-07T15:28:12.322Z,86
2022-11-07T15:31:37.643Z,86
2022-11-07T15:35:22.846Z,86
2022-11-07T15:38:28.282Z,86
2022-11-07T15:41:53.855Z,86
2022-11-07T15:45:19.160Z,86
2022-11-07T15:48:44.467Z,86
2022-11-07T15:52:09.737Z,86
2022-11-07T15:55:35.096Z,86
2022-11-07T15:59:00.389Z,87
2022-11-07T16:02:25.804Z,86
2022-11-07T16:05:51.061Z,86
2022-11-07T16:09:16.444Z,86
2022-11-07T16:12:41.819Z,86
2022-11-07T16:16:07.121Z,86
2022-11-07T16:19:32.476Z,86
2022-11-07T16:22:57.761Z,86
2022-11-07T16:26:23.073Z,87
2022-11-07T16:29:48.387Z,87
2022-11-07T16:33:13.660Z,87
2022-11-07T16:36:38.979Z,87
2022-11-07T16:40:04.277Z,87
2022-11-07T16:43:29.551Z,87
2022-11-07T16:46:54.876Z,87
2022-11-07T16:50:20.153Z,87
2022-11-07T16:53:45.430Z,87
2022-11-07T16:57:10.712Z,87
2022-11-07T17:00:35.993Z,87
2022-11-07T17:04:01.337Z,87
2022-11-07T17:07:26.552Z,87
2022-11-07T17:10:51.833Z,87
2022-11-07T17:14:17.114Z,87
2022-11-07T17:17:42.404Z,87
2022-11-07T17:21:07.721Z,87
2022-11-07T17:24:32.978Z,87
2022-11-07T17:27:58.236Z,87
2022-11-07T17:31:23.530Z,87
2022-11-07T17:35:04.625Z,88
2022-11-07T17:38:14.418Z,88
2022-11-07T17:41:40.087Z,88
2022-11-07T17:45:05.412Z,88
2022-11-07T17:48:30.702Z,88
2022-11-07T17:51:56.000Z,88
2022-11-07T17:55:21.330Z,88
2022-11-07T17:58:46.562Z,88
2022-11-07T18:02:12.072Z,88
2022-11-07T18:05:37.322Z,88
2022-11-07T18:09:02.590Z,88
2022-11-07T18:12:27.859Z,88
2022-11-07T18:15:53.051Z,88
2022-11-07T18:19:18.278Z,89
2022-11-07T18:22:43.493Z,89
2022-11-07T18:26:08.725Z,89
2022-11-07T18:29:34.012Z,89
2022-11-07T18:32:59.308Z,89
2022-11-07T18:36:24.548Z,89
2022-11-07T18:39:49.802Z,89
2022-11-07T18:43:15.060Z,89
2022-11-07T18:46:40.307Z,89
2022-11-07T18:50:05.584Z,89
2022-11-07T18:53:30.831Z,89
2022-11-07T18:56:56.043Z,89
2022-11-07T19:00:21.274Z,89
2022-11-07T19:03:46.521Z,89
2022-11-07T19:07:11.786Z,89
2022-11-07T19:10:37.008Z,89
2022-11-07T19:14:02.277Z,89
2022-11-07T19:17:27.530Z,89
2022-11-07T19:20:52.840Z,89
2022-11-07T19:24:18.237Z,89
2022-11-07T19:27:43.498Z,88
2022-11-07T19:31:08.830Z,89
2022-11-07T19:34:34.055Z,89
2022-11-07T19:37:59.332Z,88
2022-11-07T19:41:24.604Z,89
2022-11-07T19:44:54.100Z,88
2022-11-07T19:48:15.054Z,88
2022-11-07T19:51:40.273Z,89
2022-11-07T19:55:05.548Z,89
2022-11-07T19:58:30.744Z,89
2022-11-07T20:02:18.173Z,89
2022-11-07T20:05:21.234Z,89
2022-11-07T20:08:46.627Z,89
2022-11-07T20:12:11.947Z,89
2022-11-07T20:15:37.135Z,89
2022-11-07T20:19:02.359Z,89
2022-11-07T20:22:27.617Z,89
2022-11-07T20:25:52.847Z,90
2022-11-07T20:29:18.124Z,90
2022-11-07T20:32:43.317Z,90
2022-11-07T20:36:08.572Z,90
2022-11-07T20:39:33.814Z,90
2022-11-07T20:42:59.122Z,90
2022-11-07T20:46:24.388Z,90
2022-11-07T20:49:49.654Z,90
2022-11-07T20:53:15.393Z,90
2022-11-07T20:56:40.218Z,90
2022-11-07T21:00:05.448Z,90
2022-11-07T21:03:30.699Z,90
2022-11-07T21:06:55.903Z,90
2022-11-07T21:10:21.146Z,90
2022-11-07T21:13:51.367Z,89
2022-11-07T21:17:11.586Z,89
2022-11-07T21:20:36.829Z,90
2022-11-07T21:24:02.021Z,90
2022-11-07T21:27:27.239Z,90
2022-11-07T21:30:52.494Z,90
2022-11-07T21:34:17.718Z,90
2022-11-07T21:37:42.942Z,91
2022-11-07T21:41:08.152Z,91
2022-11-07T21:44:33.376Z,91
2022-11-07T21:47:58.594Z,90
2022-11-07T21:51:23.838Z,90
2022-11-07T21:54:49.074Z,91
2022-11-07T21:58:14.283Z,91
2022-11-07T22:01:39.732Z,91
2022-11-07T22:05:04.768Z,91
2022-11-07T22:08:29.982Z,91
2022-11-07T22:11:55.216Z,91
2022-11-07T22:15:20.423Z,92
2022-11-07T22:18:45.691Z,92
2022-11-07T22:22:10.927Z,92
2022-11-07T22:25:36.146Z,92
2022-11-07T22:29:01.412Z,92
2022-11-07T22:32:26.604Z,92
2022-11-07T22:35:51.816Z,92
2022-11-07T22:39:17.035Z,92
2022-11-07T22:42:42.267Z,92
2022-11-07T22:46:07.507Z,92
2022-11-07T22:49:32.717Z,92
2022-11-07T22:52:57.941Z,92
2022-11-07T22:56:23.158Z,92
2022-11-07T22:59:48.383Z,92
2022-11-07T23:03:13.710Z,92
2022-11-07T23:06:38.806Z,92
2022-11-07T23:10:04.033Z,92
2022-11-07T23:13:29.271Z,92
2022-11-07T23:16:54.483Z,91
2022-11-07T23:20:19.751Z,92
2022-11-07T23:23:44.958Z,92
2022-11-07T23:27:10.178Z,92
2022-11-07T23:30:35.425Z,92
2022-11-07T23:34:00.653Z,92
2022-11-07T23:37:25.909Z,91
2022-11-07T23:40:51.095Z,91
2022-11-07T23:44:16.330Z,91
2022-11-07T23:47:41.572Z,91
2022-11-07T23:51:06.783Z,91
2022-11-07T23:54:32.056Z,91
2022-11-07T23:57:57.272Z,92
